sensor_id;sensor_type;location;lat;lon;timestamp;pressure;altitude;pressure_sealevel;temperature;humidity
73974;BME280;62336;-26.094;27.994;2023-02-01T10:38:23;85105.92;;;32.67;25.05
73974;BME280;62336;-26.094;27.994;2023-02-01T10:40:40;85106.57;;;33.26;25.15
73974;BME280;62336;-26.094;27.994;2023-02-01T10:43:05;85103.96;;;33.70;25.00
73974;BME280;62336;-26.094;27.994;2023-02-01T10:45:32;85099.75;;;33.33;24.41
73974;BME280;62336;-26.094;27.994;2023-02-01T10:47:58;85092.98;;;33.65;24.91
73974;BME280;62336;-26.094;27.994;2023-02-01T10:50:32;85091.46;;;33.66;24.01
73974;BME280;62336;-26.094;27.994;2023-02-01T10:52:50;85092.01;;;33.82;23.74
73974;BME280;62336;-26.094;27.994;2023-02-01T10:55:26;85091.31;;;33.66;23.85
73974;BME280;62336;-26.094;27.994;2023-02-01T10:57:38;85088.85;;;34.04;23.90
73974;BME280;62336;-26.094;27.994;2023-02-01T11:02:33;85087.58;;;34.17;24.14
73974;BME280;62336;-26.094;27.994;2023-02-01T11:05:00;85083.16;;;34.20;24.39
73974;BME280;62336;-26.094;27.994;2023-02-01T11:07:24;85084.03;;;34.40;24.22
73974;BME280;62336;-26.094;27.994;2023-02-01T11:09:51;85077.57;;;33.82;24.93
73974;BME280;62336;-26.094;27.994;2023-02-01T11:12:23;85075.10;;;33.94;24.51
73974;BME280;62336;-26.094;27.994;2023-02-01T11:14:39;85067.84;;;33.85;25.03
73974;BME280;62336;-26.094;27.994;2023-02-01T11:17:16;85061.99;;;33.57;25.02
73974;BME280;62336;-26.094;27.994;2023-02-01T11:19:28;85058.60;;;33.79;24.98
73974;BME280;62336;-26.094;27.994;2023-02-01T11:21:53;85060.92;;;33.72;24.51
73974;BME280;62336;-26.094;27.994;2023-02-01T11:24:22;85062.83;;;33.99;24.63
73974;BME280;62336;-26.094;27.994;2023-02-01T11:26:43;85064.86;;;33.08;25.57
73974;BME280;62336;-26.094;27.994;2023-02-01T11:29:12;85063.37;;;32.95;25.73
73974;BME280;62336;-26.094;27.994;2023-02-01T11:31:34;85055.22;;;33.36;25.25
73974;BME280;62336;-26.094;27.994;2023-02-01T11:34:04;85056.79;;;33.12;25.10
73974;BME280;62336;-26.094;27.994;2023-02-01T11:36:27;85059.91;;;33.91;24.66
73974;BME280;62336;-26.094;27.994;2023-02-01T11:38:54;85058.45;;;34.07;24.27
73974;BME280;62336;-26.094;27.994;2023-02-01T11:41:20;85054.16;;;33.92;24.42
73974;BME280;62336;-26.094;27.994;2023-02-01T11:46:18;85046.72;;;33.86;24.31
73974;BME280;62336;-26.094;27.994;2023-02-01T11:48:31;85036.60;;;33.86;24.60
73974;BME280;62336;-26.094;27.994;2023-02-01T11:51:12;85023.91;;;33.64;24.72
73974;BME280;62336;-26.094;27.994;2023-02-01T11:53:30;85024.62;;;33.51;24.85
73974;BME280;62336;-26.094;27.994;2023-02-01T11:55:56;85028.75;;;33.56;25.13
73974;BME280;62336;-26.094;27.994;2023-02-01T11:58:22;85031.49;;;33.34;24.82
73974;BME280;62336;-26.094;27.994;2023-02-01T12:00:49;85028.40;;;33.36;24.33
73974;BME280;62336;-26.094;27.994;2023-02-01T12:05:35;85028.36;;;33.53;24.14
73974;BME280;62336;-26.094;27.994;2023-02-01T12:10:30;85026.33;;;32.55;24.38
73974;BME280;62336;-26.094;27.994;2023-02-01T12:12:52;85027.61;;;33.51;24.03
73974;BME280;62336;-26.094;27.994;2023-02-01T12:15:22;85028.90;;;33.23;23.90
73974;BME280;62336;-26.094;27.994;2023-02-01T12:17:51;85030.13;;;32.78;24.63
73974;BME280;62336;-26.094;27.994;2023-02-01T12:20:12;85032.67;;;32.96;24.92
73974;BME280;62336;-26.094;27.994;2023-02-01T12:22:36;85030.36;;;33.21;24.65
73974;BME280;62336;-26.094;27.994;2023-02-01T12:29:58;85019.06;;;33.09;25.14
73974;BME280;62336;-26.094;27.994;2023-02-01T12:32:16;85018.08;;;33.27;25.29
73974;BME280;62336;-26.094;27.994;2023-02-01T12:34:42;85011.67;;;33.74;24.98
73974;BME280;62336;-26.094;27.994;2023-02-01T12:37:05;85012.22;;;33.16;24.87
73974;BME280;62336;-26.094;27.994;2023-02-01T12:39:30;85012.49;;;33.34;25.55
73974;BME280;62336;-26.094;27.994;2023-02-01T12:41:55;85009.49;;;33.00;25.55
73974;BME280;62336;-26.094;27.994;2023-02-01T12:44:24;85010.15;;;32.43;26.00
73974;BME280;62336;-26.094;27.994;2023-02-01T12:46:43;85008.52;;;32.87;26.51
73974;BME280;62336;-26.094;27.994;2023-02-01T12:49:10;85004.18;;;32.60;26.13
73974;BME280;62336;-26.094;27.994;2023-02-01T12:51:36;84998.54;;;32.73;25.37
73974;BME280;62336;-26.094;27.994;2023-02-01T12:54:00;84994.90;;;33.37;25.37
73974;BME280;62336;-26.094;27.994;2023-02-01T12:56:26;84992.55;;;33.20;25.26
73974;BME280;62336;-26.094;27.994;2023-02-01T12:58:50;84994.20;;;33.61;25.35
73974;BME280;62336;-26.094;27.994;2023-02-01T13:01:17;84991.14;;;33.44;25.31
73974;BME280;62336;-26.094;27.994;2023-02-01T13:03:42;84987.52;;;33.56;25.77
73974;BME280;62336;-26.094;27.994;2023-02-01T13:06:10;84984.83;;;32.64;26.06
73974;BME280;62336;-26.094;27.994;2023-02-01T13:08:38;84977.97;;;33.20;26.23
73974;BME280;62336;-26.094;27.994;2023-02-01T13:11:00;84965.50;;;33.55;25.89
73974;BME280;62336;-26.094;27.994;2023-02-01T13:13:28;84960.43;;;33.26;26.82
73974;BME280;62336;-26.094;27.994;2023-02-01T13:15:49;84955.25;;;32.60;27.11
73974;BME280;62336;-26.094;27.994;2023-02-01T13:18:16;84951.86;;;33.36;27.02
73974;BME280;62336;-26.094;27.994;2023-02-01T13:20:45;84953.46;;;33.57;26.56
73974;BME280;62336;-26.094;27.994;2023-02-01T13:23:08;84954.51;;;33.04;26.70
73974;BME280;62336;-26.094;27.994;2023-02-01T13:25:35;84952.54;;;33.51;26.77
73974;BME280;62336;-26.094;27.994;2023-02-01T13:27:55;84951.65;;;33.52;25.88
73974;BME280;62336;-26.094;27.994;2023-02-01T13:30:22;84950.37;;;33.16;26.21
73974;BME280;62336;-26.094;27.994;2023-02-01T13:37:46;84934.39;;;33.21;26.27
73974;BME280;62336;-26.094;27.994;2023-02-01T13:42:29;84931.35;;;33.10;25.52
73974;BME280;62336;-26.094;27.994;2023-02-01T13:44:56;84929.38;;;33.11;26.01
73974;BME280;62336;-26.094;27.994;2023-02-01T13:47:24;84931.12;;;33.48;25.60
73974;BME280;62336;-26.094;27.994;2023-02-01T13:49:43;84927.16;;;33.87;25.43
73974;BME280;62336;-26.094;27.994;2023-02-01T13:54:38;84911.98;;;33.02;25.45
73974;BME280;62336;-26.094;27.994;2023-02-01T13:57:00;84904.69;;;33.53;25.15
73974;BME280;62336;-26.094;27.994;2023-02-01T13:59:37;84905.13;;;33.23;25.60
73974;BME280;62336;-26.094;27.994;2023-02-01T14:01:51;84905.57;;;33.25;25.82
73974;BME280;62336;-26.094;27.994;2023-02-01T14:06:45;84903.59;;;33.03;25.42
73974;BME280;62336;-26.094;27.994;2023-02-01T14:09:17;84901.52;;;32.98;25.41
73974;BME280;62336;-26.094;27.994;2023-02-01T14:11:37;84902.41;;;32.83;25.58
73974;BME280;62336;-26.094;27.994;2023-02-01T14:16:23;84890.67;;;32.77;24.74
73974;BME280;62336;-26.094;27.994;2023-02-01T14:18:58;84887.66;;;32.22;24.64
73974;BME280;62336;-26.094;27.994;2023-02-01T14:21:19;84884.05;;;33.15;24.41
73974;BME280;62336;-26.094;27.994;2023-02-01T14:23:41;84884.37;;;32.65;23.49
73974;BME280;62336;-26.094;27.994;2023-02-01T14:26:10;84887.15;;;32.63;24.59
73974;BME280;62336;-26.094;27.994;2023-02-01T14:28:32;84886.41;;;32.38;25.18
73974;BME280;62336;-26.094;27.994;2023-02-01T14:30:58;84885.55;;;33.07;24.40
73974;BME280;62336;-26.094;27.994;2023-02-01T14:33:25;84881.37;;;33.01;23.89
73974;BME280;62336;-26.094;27.994;2023-02-01T14:36:01;84881.40;;;32.85;24.38
73974;BME280;62336;-26.094;27.994;2023-02-01T14:38:15;84873.29;;;33.59;24.44
73974;BME280;62336;-26.094;27.994;2023-02-01T14:40:41;84871.06;;;32.82;24.15
73974;BME280;62336;-26.094;27.994;2023-02-01T14:43:08;84872.34;;;32.93;23.91
73974;BME280;62336;-26.094;27.994;2023-02-01T14:45:48;84874.28;;;32.35;24.34
73974;BME280;62336;-26.094;27.994;2023-02-01T14:50:34;84869.94;;;32.86;24.05
73974;BME280;62336;-26.094;27.994;2023-02-01T14:52:58;84862.89;;;33.54;23.74
73974;BME280;62336;-26.094;27.994;2023-02-01T14:55:19;84859.21;;;33.87;23.68
73974;BME280;62336;-26.094;27.994;2023-02-01T14:57:44;84865.85;;;33.07;24.11
73974;BME280;62336;-26.094;27.994;2023-02-01T15:02:36;84868.39;;;32.91;24.34
73974;BME280;62336;-26.094;27.994;2023-02-01T15:04:58;84868.59;;;33.15;24.11
73974;BME280;62336;-26.094;27.994;2023-02-01T15:07:25;84869.21;;;32.91;24.46
73974;BME280;62336;-26.094;27.994;2023-02-01T15:09:50;84869.11;;;32.65;24.92
73974;BME280;62336;-26.094;27.994;2023-02-01T15:12:17;84866.78;;;33.50;24.15
73974;BME280;62336;-26.094;27.994;2023-02-01T15:14:42;84865.77;;;32.93;24.53
73974;BME280;62336;-26.094;27.994;2023-02-01T15:17:18;84866.29;;;33.07;23.89
73974;BME280;62336;-26.094;27.994;2023-02-01T15:19:32;84870.08;;;32.88;23.73
73974;BME280;62336;-26.094;27.994;2023-02-01T15:21:58;84869.13;;;32.66;23.96
73974;BME280;62336;-26.094;27.994;2023-02-01T15:24:25;84869.42;;;33.20;23.21
73974;BME280;62336;-26.094;27.994;2023-02-01T15:26:49;84870.18;;;33.14;23.57
73974;BME280;62336;-26.094;27.994;2023-02-01T15:29:15;84871.14;;;33.17;22.82
73974;BME280;62336;-26.094;27.994;2023-02-01T15:31:42;84872.05;;;33.06;22.21
73974;BME280;62336;-26.094;27.994;2023-02-01T15:34:06;84876.00;;;33.29;22.61
73974;BME280;62336;-26.094;27.994;2023-02-01T15:36:32;84884.18;;;33.57;23.27
73974;BME280;62336;-26.094;27.994;2023-02-01T15:39:12;84892.41;;;33.45;23.46
73974;BME280;62336;-26.094;27.994;2023-02-01T15:41:28;84886.98;;;33.71;22.51
73974;BME280;62336;-26.094;27.994;2023-02-01T15:46:18;84884.20;;;33.06;22.95
73974;BME280;62336;-26.094;27.994;2023-02-01T15:48:44;84884.59;;;33.08;23.65
73974;BME280;62336;-26.094;27.994;2023-02-01T15:51:11;84888.31;;;33.58;23.30
73974;BME280;62336;-26.094;27.994;2023-02-01T15:53:33;84889.10;;;33.16;23.87
73974;BME280;62336;-26.094;27.994;2023-02-01T15:56:00;84882.41;;;32.17;24.65
73974;BME280;62336;-26.094;27.994;2023-02-01T15:58:25;84877.90;;;32.35;24.58
73974;BME280;62336;-26.094;27.994;2023-02-01T16:00:52;84878.59;;;32.77;24.14
73974;BME280;62336;-26.094;27.994;2023-02-01T16:03:26;84876.75;;;32.41;23.97
73974;BME280;62336;-26.094;27.994;2023-02-01T16:05:43;84870.59;;;32.59;23.40
73974;BME280;62336;-26.094;27.994;2023-02-01T16:08:13;84869.20;;;33.00;23.39
73974;BME280;62336;-26.094;27.994;2023-02-01T16:11:54;84876.00;;;30.08;27.83
73974;BME280;62336;-26.094;27.994;2023-02-01T16:14:10;84878.53;;;30.80;26.62
73974;BME280;62336;-26.094;27.994;2023-02-01T16:16:36;84877.61;;;31.03;26.09
73974;BME280;62336;-26.094;27.994;2023-02-01T16:19:02;84874.82;;;30.94;26.15
73974;BME280;62336;-26.094;27.994;2023-02-01T16:21:27;84880.75;;;31.26;25.93
73974;BME280;62336;-26.094;27.994;2023-02-01T16:23:53;84882.05;;;31.29;25.60
73974;BME280;62336;-26.094;27.994;2023-02-01T16:26:19;84881.88;;;31.91;25.35
73974;BME280;62336;-26.094;27.994;2023-02-01T16:28:45;84883.02;;;31.96;25.52
73974;BME280;62336;-26.094;27.994;2023-02-01T16:31:12;84884.98;;;32.03;25.62
73974;BME280;62336;-26.094;27.994;2023-02-01T16:33:35;84887.44;;;31.95;25.69
73974;BME280;62336;-26.094;27.994;2023-02-01T16:36:01;84887.79;;;32.50;25.04
73974;BME280;62336;-26.094;27.994;2023-02-01T16:38:27;84886.01;;;32.72;25.23
73974;BME280;62336;-26.094;27.994;2023-02-01T16:40:51;84886.08;;;32.61;25.17
73974;BME280;62336;-26.094;27.994;2023-02-01T16:43:20;84885.37;;;32.25;25.52
73974;BME280;62336;-26.094;27.994;2023-02-01T16:45:42;84889.13;;;32.39;25.38
73974;BME280;62336;-26.094;27.994;2023-02-01T16:48:07;84894.87;;;32.12;25.47
73974;BME280;62336;-26.094;27.994;2023-02-01T16:50:33;84902.43;;;32.42;25.38
73974;BME280;62336;-26.094;27.994;2023-02-01T16:52:57;84908.29;;;32.33;25.46
73974;BME280;62336;-26.094;27.994;2023-02-01T16:55:23;84905.27;;;32.48;25.61
73974;BME280;62336;-26.094;27.994;2023-02-01T16:57:49;84903.36;;;32.72;25.50
73974;BME280;62336;-26.094;27.994;2023-02-01T17:00:14;84903.38;;;32.56;25.70
73974;BME280;62336;-26.094;27.994;2023-02-01T17:02:40;84902.81;;;32.60;25.75
73974;BME280;62336;-26.094;27.994;2023-02-01T17:05:05;84903.21;;;32.50;26.04
73974;BME280;62336;-26.094;27.994;2023-02-01T17:07:30;84905.25;;;32.55;25.75
73974;BME280;62336;-26.094;27.994;2023-02-01T17:09:55;84901.93;;;32.16;25.39
73974;BME280;62336;-26.094;27.994;2023-02-01T17:12:23;84904.28;;;32.63;25.38
73974;BME280;62336;-26.094;27.994;2023-02-01T17:14:46;84907.89;;;32.67;25.50
73974;BME280;62336;-26.094;27.994;2023-02-01T17:17:11;84909.62;;;32.39;25.64
73974;BME280;62336;-26.094;27.994;2023-02-01T17:19:37;84915.50;;;32.27;25.83
73974;BME280;62336;-26.094;27.994;2023-02-01T17:22:03;84919.46;;;31.96;26.40
73974;BME280;62336;-26.094;27.994;2023-02-01T17:24:30;84921.94;;;32.41;26.09
73974;BME280;62336;-26.094;27.994;2023-02-01T17:26:55;84920.71;;;32.10;26.30
73974;BME280;62336;-26.094;27.994;2023-02-01T17:29:19;84920.74;;;32.48;26.10
73974;BME280;62336;-26.094;27.994;2023-02-01T17:31:46;84922.59;;;32.71;25.88
73974;BME280;62336;-26.094;27.994;2023-02-01T17:34:10;84923.20;;;32.63;26.14
73974;BME280;62336;-26.094;27.994;2023-02-01T17:36:35;84922.41;;;32.37;26.22
73974;BME280;62336;-26.094;27.994;2023-02-01T17:39:01;84924.49;;;32.39;26.15
73974;BME280;62336;-26.094;27.994;2023-02-01T17:41:26;84924.94;;;32.25;26.49
73974;BME280;62336;-26.094;27.994;2023-02-01T17:43:52;84927.93;;;32.49;26.67
73974;BME280;62336;-26.094;27.994;2023-02-01T17:46:19;84934.02;;;32.27;26.91
73974;BME280;62336;-26.094;27.994;2023-02-01T17:48:42;84933.10;;;31.52;27.49
73974;BME280;62336;-26.094;27.994;2023-02-01T17:51:15;84934.84;;;32.28;27.13
73974;BME280;62336;-26.094;27.994;2023-02-01T17:53:32;84937.09;;;31.77;27.08
73974;BME280;62336;-26.094;27.994;2023-02-01T17:55:58;84937.79;;;31.50;27.35
73974;BME280;62336;-26.094;27.994;2023-02-01T17:58:24;84938.08;;;32.15;27.42
73974;BME280;62336;-26.094;27.994;2023-02-01T18:00:49;84936.66;;;32.18;27.10
73974;BME280;62336;-26.094;27.994;2023-02-01T18:03:24;84934.83;;;32.08;27.25
73974;BME280;62336;-26.094;27.994;2023-02-01T18:05:41;84933.69;;;32.88;26.45
73974;BME280;62336;-26.094;27.994;2023-02-01T18:08:05;84937.14;;;32.41;26.61
73974;BME280;62336;-26.094;27.994;2023-02-01T18:10:30;84944.17;;;32.15;27.04
73974;BME280;62336;-26.094;27.994;2023-02-01T18:12:55;84945.79;;;31.83;27.30
73974;BME280;62336;-26.094;27.994;2023-02-01T18:15:23;84946.65;;;32.31;27.08
73974;BME280;62336;-26.094;27.994;2023-02-01T18:17:47;84950.12;;;32.24;27.28
73974;BME280;62336;-26.094;27.994;2023-02-01T18:19:43;84953.73;;;31.69;27.49
73974;BME280;62336;-26.094;27.994;2023-02-01T18:22:15;84957.73;;;31.91;26.72
73974;BME280;62336;-26.094;27.994;2023-02-01T18:24:34;84966.36;;;32.23;26.96
73974;BME280;62336;-26.094;27.994;2023-02-01T18:27:00;84967.47;;;32.55;26.73
73974;BME280;62336;-26.094;27.994;2023-02-01T18:29:25;84972.72;;;32.82;26.33
73974;BME280;62336;-26.094;27.994;2023-02-01T18:31:51;84974.87;;;32.76;26.34
73974;BME280;62336;-26.094;27.994;2023-02-01T18:34:16;84980.74;;;32.41;26.55
73974;BME280;62336;-26.094;27.994;2023-02-01T18:36:48;84986.53;;;32.39;26.70
73974;BME280;62336;-26.094;27.994;2023-02-01T18:39:07;84991.31;;;32.46;26.63
73974;BME280;62336;-26.094;27.994;2023-02-01T18:41:32;84991.22;;;32.83;26.25
73974;BME280;62336;-26.094;27.994;2023-02-01T18:43:58;84993.72;;;32.92;26.34
